createdAt,value
2018-06-14T00:01:22.130Z,83.93
2018-06-14T00:03:51.082Z,83.51
2018-06-14T00:06:20.056Z,82.41
2018-06-14T00:08:49.252Z,83.56
2018-06-14T00:11:18.534Z,83.04
2018-06-14T00:13:47.764Z,82.87
2018-06-14T00:16:17.087Z,82.95
2018-06-14T00:18:46.352Z,83.93
2018-06-14T00:21:15.622Z,82.63
2018-06-14T00:23:44.624Z,82.86
2018-06-14T00:26:13.855Z,83.58
2018-06-14T00:28:43.055Z,84.75
2018-06-14T00:31:12.267Z,84.92
2018-06-14T00:33:41.478Z,85.92
2018-06-14T00:36:10.684Z,85.63
2018-06-14T00:38:39.691Z,85.18
2018-06-14T00:41:08.953Z,85.15
2018-06-14T00:43:38.206Z,85.97
2018-06-14T00:46:07.402Z,86.03
2018-06-14T00:48:36.680Z,86.53
2018-06-14T00:51:05.870Z,87.28
2018-06-14T00:53:35.087Z,86.87
2018-06-14T00:56:04.380Z,87.53
2018-06-14T00:58:33.623Z,86.97
2018-06-14T01:01:02.847Z,87.00
2018-06-14T01:03:32.119Z,85.95
2018-06-14T01:06:01.335Z,87.13
2018-06-14T01:08:30.764Z,86.72
2018-06-14T01:11:00.375Z,86.65
2018-06-14T01:13:29.707Z,86.66
2018-06-14T01:15:58.922Z,87.43
2018-06-14T01:18:28.166Z,87.35
2018-06-14T01:20:57.398Z,87.57
2018-06-14T01:23:26.667Z,88.21
2018-06-14T01:25:55.872Z,88.29
2018-06-14T01:28:25.103Z,87.98
2018-06-14T01:30:54.338Z,87.96
2018-06-14T01:33:23.574Z,87.67
2018-06-14T01:35:52.816Z,88.17
2018-06-14T01:38:26.398Z,88.61
2018-06-14T01:40:55.904Z,88.43
2018-06-14T01:43:25.214Z,89.03
2018-06-14T01:45:54.483Z,88.59
2018-06-14T01:48:23.726Z,89.01
2018-06-14T01:50:52.966Z,89.19
2018-06-14T01:53:21.957Z,89.27
2018-06-14T01:55:51.198Z,88.37
2018-06-14T01:58:20.443Z,88.91
2018-06-14T02:00:49.675Z,88.48
2018-06-14T02:03:18.948Z,88.29
2018-06-14T02:05:48.190Z,88.42
2018-06-14T02:08:17.428Z,88.54
2018-06-14T02:10:46.666Z,88.21
2018-06-14T02:13:15.935Z,88.64
2018-06-14T02:15:45.219Z,88.94
2018-06-14T02:18:14.457Z,88.87
2018-06-14T02:20:43.684Z,88.29
2018-06-14T02:23:12.922Z,89.22
2018-06-14T02:25:42.180Z,88.68
2018-06-14T02:28:11.390Z,89.27
2018-06-14T02:30:40.687Z,89.08
2018-06-14T02:33:09.929Z,89.18
2018-06-14T02:35:39.168Z,88.99
2018-06-14T02:38:08.410Z,89.17
2018-06-14T02:40:37.648Z,89.95
2018-06-14T02:43:06.863Z,90.20
2018-06-14T02:45:36.103Z,89.11
2018-06-14T02:48:05.642Z,88.91
2018-06-14T02:50:34.906Z,89.36
2018-06-14T02:53:04.209Z,89.58
2018-06-14T02:55:33.217Z,89.44
2018-06-14T02:58:02.572Z,89.51
2018-06-14T03:00:31.831Z,88.82
2018-06-14T03:03:01.162Z,90.00
2018-06-14T03:05:30.385Z,89.80
2018-06-14T03:07:59.591Z,89.33
2018-06-14T03:10:29.803Z,88.94
2018-06-14T03:12:59.031Z,89.05
2018-06-14T03:15:28.299Z,89.27
2018-06-14T03:17:57.555Z,88.94
2018-06-14T03:20:28.255Z,89.39
2018-06-14T03:22:58.070Z,90.55
2018-06-14T03:25:27.299Z,90.57
2018-06-14T03:27:56.587Z,90.52
2018-06-14T03:30:25.800Z,89.96
2018-06-14T03:32:55.175Z,89.88
2018-06-14T03:35:24.405Z,89.95
2018-06-14T03:37:53.641Z,90.67
2018-06-14T03:40:22.874Z,90.67
2018-06-14T03:42:52.118Z,89.95
2018-06-14T03:45:22.210Z,90.36
2018-06-14T03:47:51.860Z,90.59
2018-06-14T03:50:21.082Z,90.66
2018-06-14T03:52:50.316Z,89.92
2018-06-14T03:55:19.600Z,90.52
2018-06-14T03:57:48.822Z,88.47
2018-06-14T04:00:18.092Z,90.02
2018-06-14T04:02:47.379Z,89.91
2018-06-14T04:05:16.679Z,89.98
2018-06-14T04:07:45.989Z,90.95
2018-06-14T04:10:15.266Z,89.84
2018-06-14T04:12:44.473Z,89.11
2018-06-14T04:15:13.760Z,88.58
2018-06-14T04:17:43.028Z,89.83
2018-06-14T04:20:12.238Z,89.46
2018-06-14T04:22:41.460Z,89.23
2018-06-14T04:25:10.678Z,89.43
2018-06-14T04:27:39.914Z,89.59
2018-06-14T04:30:09.134Z,87.95
2018-06-14T04:32:38.359Z,85.88
2018-06-14T04:35:07.571Z,84.92
2018-06-14T04:37:36.914Z,85.54
2018-06-14T04:40:06.226Z,87.58
2018-06-14T04:42:35.468Z,88.09
2018-06-14T04:45:04.678Z,88.03
2018-06-14T04:47:33.914Z,87.14
2018-06-14T04:50:03.170Z,86.45
2018-06-14T04:52:32.439Z,85.75
2018-06-14T04:55:01.679Z,85.52
2018-06-14T04:57:30.935Z,84.70
2018-06-14T05:00:00.193Z,84.04
2018-06-14T05:02:29.471Z,84.54
2018-06-14T05:04:58.695Z,83.29
2018-06-14T05:07:27.911Z,83.26
2018-06-14T05:09:57.163Z,80.62
2018-06-14T05:12:26.425Z,80.86
2018-06-14T05:14:55.652Z,80.76
2018-06-14T05:17:24.898Z,80.56
2018-06-14T05:19:54.078Z,80.04
2018-06-14T05:22:23.338Z,78.61
2018-06-14T05:24:52.554Z,78.25
2018-06-14T05:27:21.759Z,78.20
2018-06-14T05:29:50.995Z,77.50
2018-06-14T05:32:20.254Z,76.34
2018-06-14T05:34:49.487Z,78.24
2018-06-14T05:37:18.959Z,77.66
2018-06-14T05:39:48.254Z,76.32
2018-06-14T05:42:17.530Z,75.61
2018-06-14T05:44:46.859Z,75.51
2018-06-14T05:47:16.187Z,75.56
2018-06-14T05:49:45.558Z,77.28
2018-06-14T05:52:14.812Z,76.96
2018-06-14T05:54:44.070Z,77.31
2018-06-14T05:57:13.275Z,76.19
2018-06-14T05:59:42.492Z,75.50
2018-06-14T06:02:11.698Z,75.13
2018-06-14T06:04:40.987Z,75.89
2018-06-14T06:07:10.163Z,75.79
2018-06-14T06:09:39.366Z,74.66
2018-06-14T06:12:08.614Z,76.10
2018-06-14T06:14:37.911Z,75.49
2018-06-14T06:17:07.101Z,75.05
2018-06-14T06:19:36.334Z,74.94
2018-06-14T06:22:05.529Z,75.27
2018-06-14T06:24:34.786Z,72.68
2018-06-14T06:27:04.029Z,71.63
2018-06-14T06:29:33.241Z,71.67
2018-06-14T06:32:02.482Z,69.40
2018-06-14T06:34:31.742Z,69.33
2018-06-14T06:37:00.959Z,70.45
2018-06-14T06:39:30.170Z,69.51
2018-06-14T06:41:59.487Z,69.08
2018-06-14T06:44:28.710Z,67.17
2018-06-14T06:46:58.019Z,66.08
2018-06-14T06:49:27.248Z,66.10
2018-06-14T06:51:56.527Z,66.22
2018-06-14T06:54:25.498Z,67.16
2018-06-14T06:56:54.758Z,67.29
2018-06-14T06:59:23.995Z,66.34
2018-06-14T07:01:53.221Z,57.37
2018-06-14T07:04:22.435Z,55.27
2018-06-14T07:06:51.730Z,50.24
2018-06-14T07:09:21.002Z,49.04
2018-06-14T07:11:50.379Z,49.67
2018-06-14T07:14:19.592Z,47.71
2018-06-14T07:16:48.826Z,47.52
2018-06-14T07:19:18.022Z,49.79
2018-06-14T07:21:47.283Z,51.52
2018-06-14T07:24:16.512Z,47.23
2018-06-14T07:26:45.808Z,45.99
2018-06-14T07:29:15.060Z,48.29
2018-06-14T07:31:44.383Z,47.26
2018-06-14T07:34:13.597Z,47.33
2018-06-14T07:36:42.843Z,49.35
2018-06-14T07:39:13.045Z,47.16
2018-06-14T07:41:42.267Z,49.76
2018-06-14T07:44:11.484Z,50.79
2018-06-14T07:46:40.725Z,48.46
2018-06-14T07:49:09.910Z,48.02
2018-06-14T07:51:39.127Z,49.36
2018-06-14T07:54:08.370Z,50.93
2018-06-14T07:56:37.527Z,49.17
2018-06-14T07:59:06.730Z,49.84
2018-06-14T08:01:35.966Z,50.90
2018-06-14T08:04:05.155Z,48.47
2018-06-14T08:06:34.480Z,48.59
2018-06-14T08:09:04.911Z,50.16
2018-06-14T08:11:34.077Z,49.01
2018-06-14T08:14:03.601Z,47.44
2018-06-14T08:16:32.844Z,48.56
2018-06-14T08:19:02.198Z,47.70
2018-06-14T08:21:31.393Z,48.56
2018-06-14T08:24:00.654Z,46.68
2018-06-14T08:26:29.868Z,47.57
2018-06-14T08:28:59.058Z,47.07
2018-06-14T08:31:28.295Z,47.88
2018-06-14T08:33:57.534Z,47.40
2018-06-14T08:36:26.748Z,46.46
2018-06-14T08:38:56.238Z,45.09
2018-06-14T08:41:25.691Z,46.70
2018-06-14T08:43:54.931Z,47.12
2018-06-14T08:46:24.154Z,45.02
2018-06-14T08:48:53.367Z,44.70
2018-06-14T08:51:22.568Z,42.91
2018-06-14T08:53:51.804Z,44.71
2018-06-14T08:56:21.049Z,44.11
2018-06-14T08:58:50.285Z,46.14
2018-06-14T09:01:19.570Z,47.52
2018-06-14T09:03:48.819Z,44.89
2018-06-14T09:06:18.122Z,46.68
2018-06-14T09:08:47.372Z,43.70
2018-06-14T09:11:16.670Z,45.87
2018-06-14T09:13:45.987Z,46.39
2018-06-14T09:16:15.274Z,47.30
2018-06-14T09:18:44.295Z,46.30
2018-06-14T09:21:13.513Z,45.91
2018-06-14T09:23:42.879Z,46.24
2018-06-14T09:26:12.081Z,46.24
2018-06-14T09:28:41.306Z,46.58
2018-06-14T09:31:10.523Z,45.66
2018-06-14T09:33:39.828Z,45.78
2018-06-14T09:36:08.985Z,45.29
2018-06-14T09:38:38.201Z,44.33
2018-06-14T09:41:07.404Z,46.67
2018-06-14T09:43:36.649Z,44.38
2018-06-14T09:46:05.858Z,44.94
2018-06-14T09:48:35.126Z,43.26
2018-06-14T09:51:04.375Z,42.51
2018-06-14T09:53:33.593Z,44.72
2018-06-14T09:56:02.862Z,44.14
2018-06-14T09:58:32.108Z,43.56
2018-06-14T10:01:01.434Z,45.48
2018-06-14T10:03:30.605Z,42.60
2018-06-14T10:06:00.322Z,42.97
2018-06-14T10:08:29.525Z,42.44
2018-06-14T10:10:58.721Z,43.23
2018-06-14T10:13:27.928Z,41.98
2018-06-14T10:15:57.071Z,43.48
2018-06-14T10:18:26.576Z,43.26
2018-06-14T10:20:55.816Z,42.46
2018-06-14T10:23:25.025Z,44.53
2018-06-14T10:25:54.211Z,41.95
2018-06-14T10:28:23.446Z,42.41
2018-06-14T10:30:52.668Z,41.52
2018-06-14T10:33:21.788Z,42.21
2018-06-14T10:35:51.006Z,42.71
2018-06-14T10:38:20.296Z,41.12
2018-06-14T10:40:49.558Z,39.42
2018-06-14T10:43:18.814Z,39.84
2018-06-14T10:45:48.238Z,38.07
2018-06-14T10:48:17.473Z,39.52
2018-06-14T10:50:46.864Z,37.41
2018-06-14T10:53:16.511Z,38.90
2018-06-14T10:55:45.808Z,39.46
2018-06-14T10:58:15.045Z,42.62
2018-06-14T11:00:44.428Z,41.54
2018-06-14T11:03:13.620Z,40.80
2018-06-14T11:05:42.856Z,39.85
2018-06-14T11:08:11.997Z,40.46
2018-06-14T11:10:41.291Z,41.86
2018-06-14T11:13:10.570Z,42.38
2018-06-14T11:15:39.609Z,43.41
2018-06-14T11:18:08.942Z,42.14
2018-06-14T11:20:38.409Z,44.72
2018-06-14T11:23:07.745Z,42.37
2018-06-14T11:25:37.103Z,41.56
2018-06-14T11:28:06.520Z,44.73
2018-06-14T11:30:35.889Z,42.15
2018-06-14T11:33:05.372Z,40.58
2018-06-14T11:35:34.396Z,39.42
2018-06-14T11:38:03.684Z,42.92
2018-06-14T11:40:32.940Z,42.47
2018-06-14T11:43:02.204Z,40.82
2018-06-14T11:45:31.531Z,40.70
2018-06-14T11:48:00.892Z,38.37
2018-06-14T11:50:30.190Z,39.51
2018-06-14T11:52:59.473Z,40.97
2018-06-14T11:55:28.761Z,39.76
2018-06-14T11:57:58.087Z,38.37
2018-06-14T12:00:27.391Z,37.55
2018-06-14T12:02:56.794Z,37.22
2018-06-14T12:05:26.043Z,38.37
2018-06-14T12:07:55.434Z,40.55
2018-06-14T12:10:24.791Z,39.65
2018-06-14T12:12:54.059Z,37.64
2018-06-14T12:15:23.347Z,38.11
2018-06-14T12:17:52.704Z,38.09
2018-06-14T12:20:22.059Z,40.27
2018-06-14T12:22:51.331Z,40.12
2018-06-14T12:25:20.720Z,42.82
2018-06-14T12:27:50.077Z,42.35
2018-06-14T12:30:19.370Z,42.14
2018-06-14T12:32:48.992Z,42.02
2018-06-14T12:35:18.098Z,40.96
2018-06-14T12:37:47.550Z,42.80
2018-06-14T12:40:16.962Z,39.83
2018-06-14T12:42:46.315Z,39.85
2018-06-14T12:45:15.732Z,39.11
2018-06-14T12:47:45.170Z,41.43
2018-06-14T12:50:14.516Z,41.31
2018-06-14T12:52:43.847Z,41.16
2018-06-14T12:55:13.230Z,40.85
2018-06-14T12:57:42.583Z,43.73
2018-06-14T13:00:11.859Z,43.74
2018-06-14T13:02:41.183Z,40.92
2018-06-14T13:05:10.210Z,41.44
2018-06-14T13:07:39.455Z,41.69
2018-06-14T13:10:08.768Z,41.44
2018-06-14T13:12:38.183Z,40.27
2018-06-14T13:15:07.549Z,39.52
2018-06-14T13:17:36.942Z,39.15
2018-06-14T13:20:06.299Z,41.12
2018-06-14T13:22:35.526Z,38.86
2018-06-14T13:25:04.768Z,39.93
2018-06-14T13:27:33.986Z,39.95
2018-06-14T13:30:03.391Z,41.63
2018-06-14T13:32:32.687Z,38.26
2018-06-14T13:35:01.966Z,40.09
2018-06-14T13:37:31.233Z,37.75
2018-06-14T13:40:00.759Z,38.92
2018-06-14T13:42:30.028Z,38.39
2018-06-14T13:44:59.330Z,39.30
2018-06-14T13:47:28.598Z,38.47
2018-06-14T13:49:58.030Z,37.43
2018-06-14T13:52:27.300Z,36.55
2018-06-14T13:54:56.589Z,36.03
2018-06-14T13:57:25.839Z,38.83
2018-06-14T13:59:55.125Z,38.05
2018-06-14T14:02:24.365Z,37.57
2018-06-14T14:04:53.696Z,37.81
2018-06-14T14:07:27.034Z,39.09
2018-06-14T14:09:57.703Z,38.70
2018-06-14T14:12:27.704Z,39.45
2018-06-14T14:14:57.457Z,38.24
2018-06-14T14:17:26.716Z,38.78
2018-06-14T14:19:56.043Z,35.61
2018-06-14T14:22:25.350Z,37.97
2018-06-14T14:24:54.535Z,38.63
2018-06-14T14:27:23.770Z,38.52
2018-06-14T14:29:53.142Z,38.39
2018-06-14T14:32:22.415Z,37.76
2018-06-14T14:34:51.670Z,37.85
2018-06-14T14:37:21.072Z,37.58
2018-06-14T14:39:50.427Z,37.78
2018-06-14T14:42:19.786Z,38.23
2018-06-14T14:44:49.179Z,38.58
2018-06-14T14:47:18.519Z,37.93
2018-06-14T14:49:47.949Z,36.92
2018-06-14T14:52:17.409Z,37.43
2018-06-14T14:54:46.788Z,36.87
2018-06-14T14:57:16.231Z,38.04
2018-06-14T14:59:45.649Z,39.96
2018-06-14T15:02:15.011Z,39.34
2018-06-14T15:04:44.436Z,38.61
2018-06-14T15:07:13.722Z,39.68
2018-06-14T15:09:43.031Z,39.58
2018-06-14T15:12:12.304Z,39.60
2018-06-14T15:14:41.602Z,39.41
2018-06-14T15:17:10.855Z,40.25
2018-06-14T15:19:40.150Z,41.39
2018-06-14T15:22:09.481Z,41.02
2018-06-14T15:24:38.926Z,38.85
2018-06-14T15:27:08.288Z,39.54
2018-06-14T15:29:37.858Z,40.25
2018-06-14T15:32:06.933Z,40.24
2018-06-14T15:34:36.325Z,40.80
2018-06-14T15:37:05.655Z,41.12
2018-06-14T15:39:35.020Z,40.24
2018-06-14T15:42:04.374Z,41.32
2018-06-14T15:44:33.853Z,40.45
2018-06-14T15:47:03.193Z,38.92
2018-06-14T15:49:32.525Z,41.05
2018-06-14T15:52:01.761Z,39.72
2018-06-14T15:54:31.241Z,40.63
2018-06-14T15:57:00.535Z,41.36
2018-06-14T15:59:29.868Z,40.84
2018-06-14T16:01:59.193Z,40.35
2018-06-14T16:04:28.526Z,39.47
2018-06-14T16:06:57.801Z,40.31
2018-06-14T16:09:27.115Z,39.87
2018-06-14T16:11:56.520Z,39.40
2018-06-14T16:17:00.401Z,41.44
2018-06-14T16:19:29.695Z,39.69
2018-06-14T16:21:58.975Z,41.57
2018-06-14T16:24:28.255Z,39.30
2018-06-14T16:26:57.517Z,41.36
2018-06-14T16:29:26.814Z,40.65
2018-06-14T16:31:56.135Z,41.13
2018-06-14T16:34:25.431Z,40.64
2018-06-14T16:36:54.746Z,41.75
2018-06-14T16:39:24.066Z,42.12
2018-06-14T16:41:54.658Z,40.27
2018-06-14T16:44:25.984Z,41.07
2018-06-14T16:46:55.283Z,39.67
2018-06-14T16:49:24.585Z,38.21
2018-06-14T16:51:53.894Z,38.77
2018-06-14T16:54:23.154Z,36.59
2018-06-14T16:56:52.406Z,37.16
2018-06-14T16:59:21.740Z,35.92
2018-06-14T17:01:51.139Z,36.22
2018-06-14T17:04:20.362Z,35.48
2018-06-14T17:06:49.653Z,36.30
2018-06-14T17:09:18.909Z,37.07
2018-06-14T17:11:48.162Z,37.65
2018-06-14T17:14:17.468Z,36.92
2018-06-14T17:16:46.652Z,37.82
2018-06-14T17:19:15.657Z,39.90
2018-06-14T17:21:44.881Z,41.97
2018-06-14T17:24:14.214Z,43.46
2018-06-14T17:26:43.490Z,44.62
2018-06-14T17:29:12.707Z,45.60
2018-06-14T17:31:41.906Z,44.43
2018-06-14T17:34:11.614Z,45.67
2018-06-14T17:36:40.907Z,45.12
2018-06-14T17:39:10.154Z,47.04
2018-06-14T17:41:39.428Z,47.82
2018-06-14T17:44:08.723Z,46.55
2018-06-14T17:46:37.908Z,47.49
2018-06-14T17:49:07.061Z,47.91
2018-06-14T17:51:36.262Z,49.30
2018-06-14T17:54:05.475Z,47.33
2018-06-14T17:56:34.710Z,48.85
2018-06-14T17:59:03.918Z,48.93
2018-06-14T18:01:33.161Z,50.27
2018-06-14T18:04:02.480Z,49.57
2018-06-14T18:06:31.735Z,49.68
2018-06-14T18:09:01.009Z,48.48
2018-06-14T18:11:30.245Z,48.91
2018-06-14T18:13:59.600Z,49.25
2018-06-14T18:16:28.851Z,49.84
2018-06-14T18:18:58.110Z,50.90
2018-06-14T18:21:27.344Z,50.64
2018-06-14T18:23:56.574Z,52.24
2018-06-14T18:26:25.797Z,53.04
2018-06-14T18:28:55.025Z,53.65
2018-06-14T18:31:24.284Z,53.79
2018-06-14T18:33:53.747Z,55.53
2018-06-14T18:36:23.054Z,55.17
2018-06-14T18:38:52.283Z,55.91
2018-06-14T18:41:21.552Z,55.31
2018-06-14T18:43:50.830Z,56.57
2018-06-14T18:46:20.139Z,56.16
2018-06-14T18:48:49.381Z,56.45
2018-06-14T18:51:18.634Z,57.18
2018-06-14T18:53:48.091Z,56.71
2018-06-14T18:56:17.473Z,57.34
2018-06-14T18:58:46.710Z,58.02
2018-06-14T19:01:17.161Z,58.23
2018-06-14T19:03:46.387Z,59.28
2018-06-14T19:06:15.653Z,59.68
2018-06-14T19:08:44.872Z,59.91
2018-06-14T19:11:14.155Z,61.26
2018-06-14T19:13:43.255Z,62.30
2018-06-14T19:16:12.276Z,63.12
2018-06-14T19:18:48.392Z,63.81
2018-06-14T19:21:17.788Z,62.74
2018-06-14T19:23:47.075Z,63.62
2018-06-14T19:26:16.617Z,64.94
2018-06-14T19:28:45.900Z,63.78
2018-06-14T19:31:14.967Z,65.58
2018-06-14T19:33:44.287Z,64.34
2018-06-14T19:36:13.612Z,65.87
2018-06-14T19:38:42.988Z,65.34
2018-06-14T19:41:12.234Z,66.71
2018-06-14T19:43:41.592Z,68.49
2018-06-14T19:46:10.936Z,69.12
2018-06-14T19:48:40.282Z,70.74
2018-06-14T19:51:10.584Z,70.95
2018-06-14T19:53:39.798Z,71.72
2018-06-14T19:56:10.123Z,72.69
2018-06-14T19:58:39.555Z,72.89
2018-06-14T20:01:08.894Z,74.17
2018-06-14T20:03:38.138Z,74.24
2018-06-14T20:06:07.391Z,75.24
2018-06-14T20:08:36.643Z,75.28
2018-06-14T20:11:05.974Z,75.52
2018-06-14T20:13:35.274Z,75.25
2018-06-14T20:16:04.923Z,75.36
2018-06-14T20:18:34.164Z,75.08
2018-06-14T20:21:03.477Z,75.42
2018-06-14T20:23:32.697Z,75.77
2018-06-14T20:26:02.113Z,75.22
2018-06-14T20:28:31.370Z,75.46
2018-06-14T20:31:00.663Z,75.90
2018-06-14T20:33:29.931Z,75.71
2018-06-14T20:35:59.070Z,75.12
2018-06-14T20:38:28.396Z,75.54
2018-06-14T20:40:57.699Z,75.77
2018-06-14T20:43:26.926Z,76.41
2018-06-14T20:45:55.972Z,75.60
2018-06-14T20:48:25.249Z,75.31
2018-06-14T20:50:54.462Z,76.03
2018-06-14T20:53:23.755Z,75.73
2018-06-14T20:55:53.184Z,76.79
2018-06-14T20:58:22.439Z,76.86
2018-06-14T21:00:51.691Z,76.67
2018-06-14T21:03:21.018Z,76.84
2018-06-14T21:05:50.217Z,76.32
2018-06-14T21:08:19.650Z,76.72
2018-06-14T21:10:48.929Z,75.73
2018-06-14T21:13:18.216Z,75.77
2018-06-14T21:15:48.628Z,76.96
2018-06-14T21:18:17.965Z,77.19
2018-06-14T21:20:47.271Z,77.66
2018-06-14T21:23:16.591Z,76.78
2018-06-14T21:25:45.943Z,76.33
2018-06-14T21:28:15.203Z,76.17
2018-06-14T21:30:44.784Z,76.26
2018-06-14T21:33:14.159Z,76.24
2018-06-14T21:35:43.422Z,77.09
2018-06-14T21:38:12.639Z,77.28
2018-06-14T21:40:41.861Z,77.50
2018-06-14T21:43:11.092Z,77.40
2018-06-14T21:45:40.339Z,77.57
2018-06-14T21:48:09.627Z,78.28
2018-06-14T21:50:38.846Z,78.77
2018-06-14T21:53:08.099Z,78.81
2018-06-14T21:55:37.370Z,79.66
2018-06-14T21:58:06.631Z,79.36
2018-06-14T22:00:35.925Z,80.16
2018-06-14T22:03:10.383Z,80.43
2018-06-14T22:05:39.628Z,80.98
2018-06-14T22:08:08.855Z,80.08
2018-06-14T22:10:38.090Z,79.86
2018-06-14T22:13:07.299Z,80.93
2018-06-14T22:15:36.573Z,80.00
2018-06-14T22:18:05.859Z,79.82
2018-06-14T22:20:35.203Z,79.49
2018-06-14T22:23:04.473Z,79.78
2018-06-14T22:25:33.707Z,79.77
2018-06-14T22:28:02.962Z,80.18
2018-06-14T22:30:32.224Z,79.86
2018-06-14T22:34:15.962Z,80.04
2018-06-14T22:36:45.252Z,80.30
2018-06-14T22:39:14.542Z,80.54
2018-06-14T22:41:43.803Z,80.01
2018-06-14T22:44:13.070Z,79.98
2018-06-14T22:46:42.048Z,79.27
2018-06-14T22:49:11.025Z,80.17
2018-06-14T22:52:51.144Z,79.14
2018-06-14T22:55:21.723Z,79.71
2018-06-14T22:57:51.118Z,79.25
2018-06-14T23:01:28.300Z,79.17
2018-06-14T23:03:58.430Z,79.28
2018-06-14T23:06:27.674Z,79.57
2018-06-14T23:08:57.094Z,79.48
2018-06-14T23:11:26.346Z,79.88
2018-06-14T23:13:55.637Z,80.85
2018-06-14T23:16:24.954Z,81.24
2018-06-14T23:18:54.206Z,81.14
2018-06-14T23:21:23.490Z,81.00
2018-06-14T23:23:52.729Z,80.35
2018-06-14T23:26:22.015Z,80.73
2018-06-14T23:28:51.255Z,79.86
2018-06-14T23:31:20.548Z,79.78
2018-06-14T23:33:49.795Z,79.89
2018-06-14T23:36:19.033Z,80.27
2018-06-14T23:38:48.342Z,80.68
2018-06-14T23:41:17.574Z,81.75
2018-06-14T23:43:46.846Z,81.67
2018-06-14T23:46:16.151Z,81.84
2018-06-14T23:48:47.542Z,82.09
2018-06-14T23:51:16.764Z,81.91
2018-06-14T23:53:46.021Z,82.04
2018-06-14T23:56:15.287Z,82.54
2018-06-14T23:58:44.594Z,82.82
